Twisp, Washington
Current Conditions -  °F | °C
As of 11:24 AM on Saturday 20 Dec 2014 (Local Time) from KOMK Reporting Station
Light Rain Light Rain  
Wind Chill: 33°   Ceiling: 1300
Heat Index: 33°   Visibility: 4mi
Dew Point: 32°   Wind: 0mph
Humidity: 96%   Direction: NA
Pressure: 29.79"   Gusts: NA
Location:  48.36°N, 120.12°W
Report Text: KOMK 201924Z AUTO 00000KT 4SM -RA BR FEW008 OVC013 01/00 A2979 RMK AO2 RAB17SNE17 P0002 T00060000
Loading
Personal Weather Stations






























Interactive Weather Map New forecast layout! Learn more

10-Day Weather Forecast

Advertisements
Track Severe Weather on mobile